Time;durP1;ratioP1;P1;durP2;ratioP2;P2;SDS_P1;SDS_P2;PMS_P1;PMS_P2;Temp;Humidity;BMP_temperature;BMP_pressure;BME280_temperature;BME280_humidity;BME280_pressure;Samples;Min_cycle;Max_cycle;Signal;HPM_P1;HPM_P2
2022/03/24 00:01:55;;;;;;;262.83;105.38;;;5.00;90.00;;;;;;4990702;28;19913;-52
2022/03/24 00:04:21;;;;;;;238.35;98.63;;;4.90;90.40;;;;;;4990966;28;20034;-50
2022/03/24 00:06:46;;;;;;;234.40;89.28;;;4.70;90.40;;;;;;4990695;28;20042;-53
2022/03/24 00:09:12;;;;;;;220.38;89.32;;;4.50;92.30;;;;;;4990745;28;20477;-50
2022/03/24 00:11:38;;;;;;;222.75;88.95;;;4.30;92.90;;;;;;4990619;28;20369;-53
2022/03/24 00:14:04;;;;;;;214.32;82.85;;;4.20;93.00;;;;;;4990722;28;20034;-54
2022/03/24 00:16:30;;;;;;;211.45;84.97;;;4.10;93.80;;;;;;5005638;28;20084;-52
2022/03/24 00:18:56;;;;;;;211.45;80.80;;;4.10;96.00;;;;;;4990706;28;20057;-52
2022/03/24 00:21:24;;;;;;;208.85;86.35;;;4.10;99.90;;;;;;4990878;28;20022;-54
2022/03/24 00:23:50;;;;;;;224.73;91.60;;;3.80;98.50;;;;;;4990278;28;20574;-52
2022/03/24 00:26:15;;;;;;;223.77;89.32;;;3.80;99.40;;;;;;4990613;28;20144;-52
2022/03/24 00:28:41;;;;;;;204.15;85.13;;;3.80;99.90;;;;;;5005334;28;20477;-53
2022/03/24 00:31:08;;;;;;;219.85;85.93;;;3.90;99.00;;;;;;4990304;28;20130;-51
2022/03/24 00:33:34;;;;;;;210.60;89.30;;;3.90;99.30;;;;;;4990085;28;20738;-50
2022/03/24 00:36:00;;;;;;;231.32;91.78;;;4.00;99.90;;;;;;4990452;28;20117;-52
2022/03/24 00:38:26;;;;;;;214.95;85.30;;;4.00;97.20;;;;;;4990064;28;20792;-51
2022/03/24 00:40:51;;;;;;;216.15;85.05;;;4.00;98.60;;;;;;4990030;28;20477;-52
2022/03/24 00:43:17;;;;;;;207.90;83.97;;;3.80;98.90;;;;;;4989749;28;20050;-52
2022/03/24 00:45:43;;;;;;;186.38;73.05;;;3.50;97.90;;;;;;4990114;28;20033;-52
2022/03/24 00:48:09;;;;;;;178.63;68.75;;;3.60;97.80;;;;;;4990359;28;20664;-51
2022/03/24 00:50:36;;;;;;;189.67;74.13;;;3.70;98.70;;;;;;4990011;28;20058;-51
2022/03/24 00:53:02;;;;;;;182.93;71.00;;;3.80;98.80;;;;;;4989114;28;20054;-50
2022/03/24 00:55:29;;;;;;;181.38;71.00;;;3.80;99.40;;;;;;4989978;28;20037;-51
2022/03/24 00:57:55;;;;;;;186.97;74.13;;;3.80;99.10;;;;;;4975124;28;20039;-51
2022/03/24 01:00:25;;;;;;;205.48;77.72;;;3.60;99.90;;;;;;4970944;28;20034;-53
2022/03/24 01:02:52;;;;;;;195.50;80.20;;;3.50;99.90;;;;;;4969899;28;20045;-52
2022/03/24 01:05:21;;;;;;;203.10;80.78;;;3.60;99.90;;;;;;4970728;28;20107;-53
2022/03/24 01:07:48;;;;;;;209.18;88.90;;;3.60;99.90;;;;;;4970006;28;20047;-52
2022/03/24 01:10:17;;;;;;;229.27;88.32;;;3.60;99.90;;;;;;4970401;28;20102;-52
2022/03/24 01:12:46;;;;;;;206.80;85.50;;;3.60;99.90;;;;;;4969519;28;20125;-52
2022/03/24 01:15:17;;;;;;;217.23;87.75;;;3.70;99.90;;;;;;4970339;28;20030;-50
2022/03/24 01:17:44;;;;;;;227.15;91.65;;;3.50;99.90;;;;;;4969466;28;20386;-51
2022/03/24 01:20:12;;;;;;;236.18;93.40;;;3.40;99.90;;;;;;4974184;28;20022;-53
2022/03/24 01:22:38;;;;;;;210.00;85.93;;;3.20;99.90;;;;;;4990972;28;20026;-53
2022/03/24 01:25:06;;;;;;;200.85;82.18;;;3.30;99.90;;;;;;4971707;28;20113;-54
2022/03/24 01:27:34;;;;;;;210.00;83.78;;;3.30;99.90;;;;;;4988926;28;20039;-53
2022/03/24 01:30:00;;;;;;;214.50;85.40;;;3.10;99.90;;;;;;4989555;28;20506;-51
2022/03/24 01:32:27;;;;;;;210.60;88.82;;;3.00;99.90;;;;;;4988636;28;20081;-54
2022/03/24 01:34:54;;;;;;;;;;;2.70;99.90;;;;;;4988698;28;20074;-51
2022/03/24 01:37:22;;;;;;;225.35;89.68;;;2.50;99.90;;;;;;4962943;28;20293;-52
2022/03/24 01:39:48;;;;;;;206.93;82.65;;;2.70;99.90;;;;;;4980013;28;20024;-52
2022/03/24 01:42:16;;;;;;;206.07;80.40;;;2.60;99.90;;;;;;4979594;28;20125;-54
2022/03/24 01:44:46;;;;;;;206.93;81.80;;;2.50;99.90;;;;;;4978298;28;20043;-52
2022/03/24 01:47:12;;;;;;;204.20;81.40;;;2.70;99.90;;;;;;4978270;28;20061;-52
2022/03/24 01:49:44;;;;;;;203.50;81.60;;;2.80;99.90;;;;;;4980085;28;20385;-53
2022/03/24 01:52:12;;;;;;;210.80;84.05;;;3.00;99.90;;;;;;4978953;28;20084;-52
2022/03/24 01:54:41;;;;;;;196.25;76.03;;;3.20;99.90;;;;;;4977064;28;20030;-52
2022/03/24 01:57:09;;;;;;;179.27;72.63;;;3.00;99.90;;;;;;4981226;28;20478;-52
2022/03/24 01:59:37;;;;;;;207.93;81.78;;;3.10;99.90;;;;;;4977640;28;20722;-51
2022/03/24 02:02:07;;;;;;;200.38;80.10;;;3.20;99.90;;;;;;4979119;28;20435;-51
2022/03/24 02:04:35;;;;;;;195.00;75.97;;;3.10;99.90;;;;;;4979500;28;20440;-52
2022/03/24 02:07:04;;;;;;;184.75;76.10;;;3.10;99.90;;;;;;4979707;28;20133;-51
2022/03/24 02:09:31;;;;;;;190.27;80.32;;;3.10;99.90;;;;;;4982289;28;20509;-53
2022/03/24 02:11:57;;;;;;;179.52;76.78;;;3.20;99.90;;;;;;4983416;28;20054;-53
2022/03/24 02:14:23;;;;;;;193.80;80.15;;;3.20;99.90;;;;;;4982557;28;20058;-52
2022/03/24 02:16:49;;;;;;;190.77;76.88;;;3.20;99.90;;;;;;4983676;28;20022;-52
2022/03/24 02:19:24;;;;;;;190.18;80.18;;;3.30;99.90;;;;;;4984375;28;20045;-52
2022/03/24 02:21:53;;;;;;;200.65;83.28;;;3.20;99.90;;;;;;4982023;28;20072;-52
2022/03/24 02:24:21;;;;;;;200.23;86.90;;;2.90;99.90;;;;;;4983570;28;20370;-52
2022/03/24 02:26:48;;;;;;;195.45;81.97;;;2.90;99.90;;;;;;4982244;28;20038;-50
2022/03/24 02:29:16;;;;;;;183.75;76.53;;;2.80;99.90;;;;;;4981703;28;20031;-51
2022/03/24 02:31:46;;;;;;;193.68;81.28;;;2.60;99.90;;;;;;4982707;28;20042;-53
2022/03/24 02:37:00;;;;;;;188.02;77.95;;;2.50;99.90;;;;;;4983074;28;20532;-51
2022/03/24 02:39:27;;;;;;;198.17;78.83;;;2.50;99.90;;;;;;4982253;28;20496;-52
2022/03/24 02:41:55;;;;;;;175.17;70.83;;;2.20;99.90;;;;;;4981506;28;20022;-51
2022/03/24 02:44:23;;;;;;;163.20;65.03;;;2.20;99.90;;;;;;4981113;28;20641;-51
2022/03/24 02:46:50;;;;;;;151.68;62.63;;;2.10;99.90;;;;;;4981670;28;20034;-50
2022/03/24 02:49:25;;;;;;;170.50;70.15;;;2.00;99.90;;;;;;4983273;28;20026;-53
2022/03/24 02:51:53;;;;;;;166.93;70.10;;;2.00;99.90;;;;;;4981875;28;20089;-51
2022/03/24 02:54:21;;;;;;;190.93;77.43;;;1.90;99.90;;;;;;4980916;28;20109;-51
2022/03/24 02:56:46;;;;;;;;;;;2.00;99.90;;;;;;4985379;28;20076;-50
2022/03/24 02:59:13;;;;;;;166.27;70.75;;;1.90;99.90;;;;;;4965217;28;19910;-51
2022/03/24 03:01:47;;;;;;;179.20;76.18;;;2.10;99.90;;;;;;4980737;28;20114;-52
2022/03/24 03:04:13;;;;;;;181.80;78.00;;;2.00;99.90;;;;;;4981135;28;20093;-52
2022/03/24 03:06:39;;;;;;;188.73;78.93;;;2.10;99.90;;;;;;4965434;28;20835;-52
2022/03/24 03:09:06;;;;;;;173.55;73.38;;;2.00;99.90;;;;;;4981505;28;20066;-52
2022/03/24 03:11:32;;;;;;;160.35;66.00;;;1.90;99.90;;;;;;4964043;28;20037;-52
2022/03/24 03:14:00;;;;;;;170.65;67.43;;;1.80;99.90;;;;;;4964597;28;20425;-52
2022/03/24 03:16:26;;;;;;;168.35;68.30;;;1.90;99.90;;;;;;4964657;28;20602;-54
2022/03/24 03:18:53;;;;;;;170.98;70.75;;;1.90;99.90;;;;;;4963420;28;20053;-52
2022/03/24 03:21:20;;;;;;;181.05;72.57;;;1.80;99.90;;;;;;4982054;28;20056;-52
2022/03/24 03:23:46;;;;;;;180.13;71.50;;;1.60;99.90;;;;;;4980848;28;20027;-51
2022/03/24 03:26:12;;;;;;;167.65;72.10;;;1.60;99.90;;;;;;4963777;28;20031;-51
2022/03/24 03:28:39;;;;;;;164.77;68.17;;;1.60;99.90;;;;;;4964964;28;20030;-52
2022/03/24 03:31:05;;;;;;;152.73;62.92;;;1.60;99.90;;;;;;4974479;28;20560;-53
2022/03/24 03:33:32;;;;;;;149.43;63.43;;;1.70;99.90;;;;;;4971551;28;20030;-51
2022/03/24 03:35:59;;;;;;;161.80;64.93;;;1.60;99.90;;;;;;5001644;28;20026;-51
2022/03/24 03:38:24;;;;;;;157.50;64.65;;;1.70;99.90;;;;;;5010692;28;20029;-52
2022/03/24 03:40:52;;;;;;;172.00;68.70;;;1.70;99.90;;;;;;5010666;28;20088;-50
2022/03/24 03:43:17;;;;;;;175.05;71.28;;;1.80;99.90;;;;;;5010089;28;20085;-52
2022/03/24 03:45:44;;;;;;;177.88;71.22;;;1.70;99.90;;;;;;5010638;28;20064;-52
2022/03/24 03:48:11;;;;;;;173.90;68.57;;;1.70;99.90;;;;;;5010284;28;20046;-53
2022/03/24 03:50:40;;;;;;;168.45;67.72;;;1.70;99.90;;;;;;5010814;28;20042;-53
2022/03/24 03:53:08;;;;;;;165.75;69.07;;;1.70;99.90;;;;;;5009858;28;20061;-51
2022/03/24 03:55:35;;;;;;;178.18;70.05;;;1.70;99.90;;;;;;5010681;28;20038;-51
2022/03/24 03:58:02;;;;;;;173.20;69.28;;;1.70;99.90;;;;;;4990895;28;20037;-52
2022/03/24 04:03:12;;;;;;;173.10;72.80;;;1.50;99.90;;;;;;4990671;28;20041;-53
2022/03/24 04:05:38;;;;;;;167.75;73.45;;;1.60;99.90;;;;;;4990920;28;20030;-52
2022/03/24 04:08:04;;;;;;;168.80;70.70;;;1.50;99.90;;;;;;4990580;28;20041;-52
2022/03/24 04:10:30;;;;;;;180.77;74.00;;;1.40;99.90;;;;;;4990457;28;20037;-53
2022/03/24 04:12:59;;;;;;;181.45;75.70;;;1.40;99.90;;;;;;4990221;28;20030;-50
2022/03/24 04:15:26;;;;;;;178.48;74.07;;;1.30;99.90;;;;;;4990620;28;20381;-51
2022/03/24 04:17:52;;;;;;;170.47;68.77;;;1.40;99.90;;;;;;4990457;28;20038;-51
2022/03/24 04:20:21;;;;;;;157.18;69.65;;;1.30;99.90;;;;;;4990561;28;20065;-52
2022/03/24 04:22:50;;;;;;;166.93;70.40;;;1.30;99.90;;;;;;4989967;28;20100;-52
2022/03/24 04:25:22;;;;;;;178.65;72.32;;;1.30;99.90;;;;;;4990288;28;20022;-52
2022/03/24 04:27:49;;;;;;;180.80;69.75;;;1.30;99.90;;;;;;4990182;28;20622;-51
2022/03/24 04:30:17;;;;;;;158.57;68.15;;;1.30;99.90;;;;;;4989727;28;20042;-52
2022/03/24 04:32:44;;;;;;;177.75;75.85;;;1.30;99.90;;;;;;4989624;28;20035;-51
2022/03/24 04:35:10;;;;;;;182.63;82.33;;;1.30;99.90;;;;;;4990098;28;20022;-54
2022/03/24 04:37:37;;;;;;;191.32;76.93;;;1.20;99.90;;;;;;4989835;28;20034;-52
2022/03/24 04:40:05;;;;;;;182.05;73.63;;;1.20;99.90;;;;;;4990045;28;20101;-52
2022/03/24 04:42:31;;;;;;;194.93;78.15;;;1.20;99.90;;;;;;4989324;28;20088;-53
2022/03/24 04:44:57;;;;;;;207.43;84.85;;;1.30;99.90;;;;;;4989682;28;20046;-51
2022/03/24 04:47:23;;;;;;;202.55;82.63;;;1.30;99.90;;;;;;4990054;28;20122;-53
2022/03/24 04:49:49;;;;;;;211.43;79.72;;;1.30;99.90;;;;;;4989681;28;20101;-55
2022/03/24 04:52:15;;;;;;;196.68;80.82;;;1.30;99.90;;;;;;4989171;28;20504;-53
2022/03/24 04:54:41;;;;;;;206.25;83.80;;;1.40;99.90;;;;;;4989216;28;20077;-53
2022/03/24 04:57:07;;;;;;;197.02;81.85;;;1.30;99.90;;;;;;4989455;28;20031;-54
2022/03/24 04:59:33;;;;;;;201.18;84.22;;;1.30;99.90;;;;;;4989301;28;20037;-53
2022/03/24 05:01:58;;;;;;;189.55;79.30;;;1.30;99.90;;;;;;4989659;28;20061;-53
2022/03/24 05:04:24;;;;;;;200.02;82.70;;;1.40;99.90;;;;;;4989555;28;20046;-53
2022/03/24 05:06:51;;;;;;;195.18;81.57;;;1.30;99.90;;;;;;4989205;28;20050;-53
2022/03/24 05:09:16;;;;;;;166.70;72.23;;;1.20;99.90;;;;;;4989370;28;20780;-53
2022/03/24 05:11:42;;;;;;;166.43;69.75;;;1.20;99.90;;;;;;4988907;28;20277;-53
2022/03/24 05:14:08;;;;;;;165.93;72.95;;;1.20;99.90;;;;;;4989448;28;20111;-53
2022/03/24 05:16:34;;;;;;;174.52;72.00;;;1.20;99.90;;;;;;4989425;28;20026;-54
2022/03/24 05:19:00;;;;;;;176.35;76.35;;;1.10;99.90;;;;;;4988968;28;20026;-53
2022/03/24 05:21:26;;;;;;;177.43;79.50;;;1.10;99.90;;;;;;4989261;28;20045;-53
2022/03/24 05:23:52;;;;;;;191.38;81.40;;;1.00;99.90;;;;;;4988729;28;20027;-53
2022/03/24 05:26:20;;;;;;;195.90;83.40;;;0.90;99.90;;;;;;4989133;28;20038;-52
2022/03/24 05:28:47;;;;;;;195.82;84.15;;;0.70;99.90;;;;;;4988968;28;20034;-53
2022/03/24 05:31:13;;;;;;;192.47;80.67;;;0.60;99.90;;;;;;4988966;28;20026;-51
2022/03/24 05:33:39;;;;;;;193.63;80.13;;;0.60;99.90;;;;;;4988781;28;20047;-52
2022/03/24 05:36:05;;;;;;;189.50;78.78;;;0.60;99.90;;;;;;4988825;28;20045;-53
2022/03/24 05:38:31;;;;;;;176.05;75.22;;;0.60;99.90;;;;;;4988665;28;20077;-52
2022/03/24 05:40:57;;;;;;;179.52;75.53;;;0.70;99.90;;;;;;4988204;28;20664;-51
2022/03/24 05:43:24;;;;;;;168.82;74.10;;;0.90;99.90;;;;;;4988178;28;20529;-51
2022/03/24 05:45:50;;;;;;;171.83;71.43;;;1.00;99.90;;;;;;4988980;28;20111;-52
2022/03/24 05:48:16;;;;;;;161.88;70.50;;;1.10;99.90;;;;;;4988880;28;20034;-53
2022/03/24 05:50:43;;;;;;;179.90;74.90;;;1.30;99.90;;;;;;4989005;28;20037;-54
2022/03/24 05:53:09;;;;;;;175.50;76.40;;;1.40;99.90;;;;;;4988018;28;20588;-51
2022/03/24 05:55:36;;;;;;;169.70;74.55;;;1.60;99.90;;;;;;4988843;28;20113;-52
2022/03/24 05:58:02;;;;;;;;;;;1.70;99.90;;;;;;4971771;28;20069;-52
2022/03/24 06:00:27;;;;;;;175.82;74.45;;;1.80;99.90;;;;;;4988728;28;19956;-52
2022/03/24 06:02:56;;;;;;;196.35;78.32;;;1.90;99.90;;;;;;4988108;28;20030;-51
2022/03/24 06:05:23;;;;;;;182.23;76.82;;;2.00;99.90;;;;;;4988544;28;20056;-51
2022/03/24 06:07:49;;;;;;;164.68;75.03;;;2.10;99.90;;;;;;4988634;28;20042;-52
2022/03/24 06:10:18;;;;;;;172.40;76.53;;;2.20;99.90;;;;;;4988412;28;20058;-51
2022/03/24 06:12:46;;;;;;;180.95;75.43;;;2.30;99.90;;;;;;4988548;28;20026;-54
2022/03/24 06:15:12;;;;;;;180.20;80.45;;;2.40;99.90;;;;;;4988277;28;20097;-52
2022/03/24 06:17:38;;;;;;;188.52;77.32;;;2.60;99.90;;;;;;4988585;28;20023;-53
2022/03/24 06:20:06;;;;;;;184.35;75.13;;;2.50;99.90;;;;;;4971138;28;20060;-53
2022/03/24 06:22:41;;;;;;;182.65;81.72;;;2.60;99.90;;;;;;4988453;28;20482;-52
2022/03/24 06:25:08;;;;;;;201.43;85.78;;;2.70;99.90;;;;;;4988419;28;20056;-53
2022/03/24 06:27:34;;;;;;;199.35;88.15;;;2.90;99.90;;;;;;4988133;28;20486;-54
2022/03/24 06:29:59;;;;;;;203.65;90.72;;;3.00;99.90;;;;;;4988422;28;20089;-54
2022/03/24 06:32:27;;;;;;;190.60;87.32;;;3.10;99.90;;;;;;4988235;28;20031;-54
2022/03/24 06:34:53;;;;;;;184.90;83.45;;;3.20;99.90;;;;;;4988740;28;20481;-54
2022/03/24 06:37:19;;;;;;;189.80;83.30;;;3.30;99.90;;;;;;4988079;28;20046;-52
2022/03/24 06:39:45;;;;;;;197.50;87.13;;;3.40;99.90;;;;;;4988585;28;20049;-52
2022/03/24 06:42:11;;;;;;;196.18;90.43;;;3.60;99.90;;;;;;4988147;28;20757;-53
2022/03/24 06:44:36;;;;;;;191.27;89.38;;;3.70;99.90;;;;;;4987944;28;20042;-52
2022/03/24 06:47:02;;;;;;;202.45;89.90;;;3.90;99.90;;;;;;4987948;28;20030;-52
2022/03/24 06:49:28;;;;;;;199.07;86.10;;;4.10;99.90;;;;;;4988598;28;20472;-52
2022/03/24 06:51:54;;;;;;;198.73;85.65;;;4.20;99.90;;;;;;4988153;28;20113;-54
2022/03/24 06:54:19;;;;;;;186.15;84.80;;;4.40;99.90;;;;;;4991537;28;20076;-51
2022/03/24 06:56:45;;;;;;;188.50;80.90;;;4.50;99.90;;;;;;4991703;28;20023;-50
2022/03/24 06:59:11;;;;;;;177.90;79.53;;;4.70;99.90;;;;;;4991815;28;20040;-52
2022/03/24 07:01:36;;;;;;;179.27;79.72;;;4.90;99.90;;;;;;4991794;28;20109;-53
2022/03/24 07:04:02;;;;;;;158.80;75.03;;;5.10;99.90;;;;;;4991478;28;20128;-53
2022/03/24 07:06:28;;;;;;;169.45;72.90;;;5.20;99.90;;;;;;4991785;28;20052;-54
2022/03/24 07:08:53;;;;;;;144.50;65.63;;;5.60;99.90;;;;;;4991489;28;20534;-51
2022/03/24 07:11:19;;;;;;;135.02;59.13;;;5.80;99.90;;;;;;4991776;28;20116;-52
2022/03/24 07:13:45;;;;;;;136.57;58.75;;;6.10;99.90;;;;;;4991499;28;20545;-51
2022/03/24 07:16:10;;;;;;;130.80;59.00;;;6.40;99.90;;;;;;4991449;28;20501;-51
2022/03/24 07:18:36;;;;;;;128.85;57.60;;;6.60;99.90;;;;;;4991059;28;20390;-52
2022/03/24 07:21:02;;;;;;;130.90;57.65;;;6.70;99.90;;;;;;4991515;28;20501;-53
2022/03/24 07:23:28;;;;;;;128.05;55.78;;;6.90;99.90;;;;;;4990937;28;20092;-51
2022/03/24 07:25:53;;;;;;;125.78;55.83;;;7.20;99.90;;;;;;4991382;28;20039;-52
2022/03/24 07:28:19;;;;;;;113.82;55.95;;;7.40;99.70;;;;;;4990973;28;20042;-52
2022/03/24 07:30:50;;;;;;;115.53;52.35;;;7.60;99.60;;;;;;4991629;28;20717;-51
2022/03/24 07:33:16;;;;;;;106.85;49.97;;;7.80;97.40;;;;;;4991146;28;20037;-52
2022/03/24 07:35:42;;;;;;;95.28;42.55;;;8.10;97.10;;;;;;4991489;28;20792;-51
2022/03/24 07:38:09;;;;;;;74.85;38.75;;;8.40;93.40;;;;;;4991204;28;20033;-52
2022/03/24 07:40:35;;;;;;;79.95;40.08;;;8.60;90.90;;;;;;4991166;28;20619;-52
2022/03/24 07:43:00;;;;;;;74.00;38.00;;;8.80;91.30;;;;;;4990657;28;20046;-50
2022/03/24 07:45:26;;;;;;;93.03;40.90;;;9.00;88.80;;;;;;4990957;28;20100;-53
2022/03/24 07:48:16;;;;;;;71.18;36.45;;;9.00;82.40;;;;;;4990758;28;20039;-51
2022/03/24 07:50:45;;;;;;;81.65;38.22;;;9.30;85.50;;;;;;4991219;28;20041;-51
2022/03/24 07:53:14;;;;;;;84.47;38.95;;;9.40;83.60;;;;;;4990836;28;20049;-52
2022/03/24 07:55:41;;;;;;;70.57;36.70;;;9.50;79.80;;;;;;4990650;28;20540;-51
2022/03/24 07:58:12;;;;;;;83.15;40.20;;;9.60;78.80;;;;;;4990541;28;20045;-51
2022/03/24 08:00:38;;;;;;;72.07;36.15;;;9.80;76.90;;;;;;4990735;28;20033;-51
2022/03/24 08:03:06;;;;;;;85.65;39.97;;;10.00;76.90;;;;;;4990429;28;20027;-53
2022/03/24 08:05:31;;;;;;;80.43;38.67;;;10.30;76.50;;;;;;4989887;28;20482;-52
2022/03/24 08:07:58;;;;;;;70.25;35.33;;;10.40;73.80;;;;;;4972714;28;20200;-51
2022/03/24 08:10:23;;;;;;;78.45;40.13;;;10.60;72.00;;;;;;4990640;28;20102;-53
2022/03/24 08:12:50;;;;;;;75.82;39.03;;;10.70;69.40;;;;;;4990361;28;20121;-52
2022/03/24 08:15:15;;;;;;;74.22;38.80;;;10.80;72.20;;;;;;4990170;28;20126;-52
2022/03/24 08:17:41;;;;;;;72.47;37.03;;;11.00;70.60;;;;;;4989926;28;20113;-52
2022/03/24 08:20:07;;;;;;;73.70;36.10;;;11.20;71.30;;;;;;4990265;28;20036;-52
2022/03/24 08:22:33;;;;;;;60.65;33.67;;;11.50;63.50;;;;;;4990202;28;20437;-53
2022/03/24 08:24:59;;;;;;;64.72;35.58;;;11.70;66.40;;;;;;4989579;28;20351;-52
2022/03/24 08:27:25;;;;;;;62.65;35.13;;;11.80;67.10;;;;;;4989039;28;20062;-51
2022/03/24 08:29:52;;;;;;;67.65;33.20;;;12.00;65.80;;;;;;4989229;28;20767;-52
2022/03/24 08:32:18;;;;;;;64.15;34.35;;;12.30;63.00;;;;;;4989388;28;20033;-52
2022/03/24 08:34:43;;;;;;;67.10;33.78;;;12.70;62.50;;;;;;4988191;28;20022;-53
2022/03/24 08:37:09;;;;;;;69.65;35.53;;;12.80;60.60;;;;;;4988265;28;20056;-52
2022/03/24 08:39:35;;;;;;;68.68;34.67;;;13.80;58.60;;;;;;4988158;28;20030;-50
2022/03/24 08:42:01;;;;;;;68.90;35.35;;;14.90;55.10;;;;;;4970750;28;20026;-54
2022/03/24 08:44:26;;;;;;;69.13;35.88;;;15.70;50.70;;;;;;4988369;28;20533;-53
2022/03/24 08:46:52;;;;;;;60.72;36.38;;;16.00;49.30;;;;;;4988319;28;20030;-53
2022/03/24 08:49:18;;;;;;;63.65;35.38;;;15.80;50.60;;;;;;4989363;28;20045;-50
2022/03/24 08:51:45;;;;;;;60.15;33.80;;;15.60;50.80;;;;;;4989568;28;20114;-52
2022/03/24 08:54:12;;;;;;;64.10;34.00;;;16.60;51.00;;;;;;4989542;28;20046;-55
2022/03/24 08:56:37;;;;;;;60.97;35.95;;;17.10;48.80;;;;;;4988996;28;20040;-52
2022/03/24 08:59:04;;;;;;;62.28;34.00;;;16.40;45.30;;;;;;4989512;28;20050;-53
2022/03/24 09:01:30;;;;;;;68.35;36.38;;;16.70;49.60;;;;;;4989820;28;20031;-52
2022/03/24 09:03:56;;;;;;;61.03;33.25;;;16.30;46.00;;;;;;4989276;28;20030;-52
2022/03/24 09:06:22;;;;;;;64.00;35.55;;;16.10;45.70;;;;;;4989918;28;20041;-52
2022/03/24 09:08:49;;;;;;;63.38;35.72;;;15.10;47.50;;;;;;4989195;28;20034;-51
2022/03/24 09:11:15;;;;;;;65.33;34.47;;;15.10;48.60;;;;;;4989435;28;20029;-51
2022/03/24 09:13:41;;;;;;;59.70;33.90;;;15.50;48.30;;;;;;4989184;28;20034;-51
2022/03/24 09:16:07;;;;;;;65.47;33.80;;;15.90;47.20;;;;;;4989441;28;20022;-49
2022/03/24 09:18:36;;;;;;;60.78;34.75;;;16.70;48.40;;;;;;4989100;28;20037;-51
2022/03/24 09:21:02;;;;;;;60.85;34.20;;;16.30;46.70;;;;;;4989024;28;20117;-53
2022/03/24 09:23:28;;;;;;;60.00;33.97;;;17.40;45.80;;;;;;4988974;28;20061;-52
2022/03/24 09:25:56;;;;;;;60.70;32.00;;;18.30;45.60;;;;;;4989587;28;20590;-51
2022/03/24 09:28:22;;;;;;;52.85;29.20;;;18.90;45.30;;;;;;4989122;28;20046;-52
2022/03/24 09:30:54;;;;;;;50.80;30.35;;;19.10;44.10;;;;;;4989037;28;20061;-51
2022/03/24 09:33:20;;;;;;;52.55;31.02;;;19.00;41.50;;;;;;4988786;28;20026;-52
2022/03/24 09:35:46;;;;;;;59.42;30.08;;;19.40;41.70;;;;;;4989242;28;20062;-53
2022/03/24 09:38:12;;;;;;;46.75;25.67;;;18.80;43.20;;;;;;5006899;28;20057;-52
2022/03/24 09:40:39;;;;;;;53.70;26.50;;;19.30;41.80;;;;;;5008087;28;20104;-51
2022/03/24 09:43:04;;;;;;;48.70;29.05;;;19.80;40.40;;;;;;5008075;28;20569;-50
2022/03/24 09:45:30;;;;;;;58.35;29.50;;;18.80;40.40;;;;;;5008199;28;20108;-52
2022/03/24 09:47:56;;;;;;;46.88;27.17;;;18.40;42.60;;;;;;5007827;28;20092;-54
2022/03/24 09:50:24;;;;;;;47.75;26.92;;;18.80;42.10;;;;;;5007968;28;20030;-53
2022/03/24 09:52:52;;;;;;;48.45;27.00;;;18.50;41.10;;;;;;5007696;28;20559;-52
2022/03/24 09:55:20;;;;;;;;;;;19.30;41.50;;;;;;5008910;28;20021;-52
2022/03/24 09:57:47;;;;;;;48.53;26.17;;;19.30;39.90;;;;;;4990895;28;19909;-51
2022/03/24 10:00:15;;;;;;;45.85;25.95;;;19.80;39.00;;;;;;4988499;28;20030;-51
2022/03/24 10:02:40;;;;;;;39.72;23.30;;;19.10;39.50;;;;;;4988365;28;20026;-50
2022/03/24 10:05:08;;;;;;;51.10;24.52;;;19.10;40.30;;;;;;4989131;28;20030;-51
2022/03/24 10:07:54;;;;;;;45.53;22.17;;;19.20;39.90;;;;;;4988804;28;20038;-52
2022/03/24 10:10:25;;;;;;;40.97;22.35;;;19.00;40.40;;;;;;4988131;28;20030;-52
2022/03/24 10:12:51;;;;;;;44.90;24.75;;;18.80;39.90;;;;;;4970716;28;20058;-51
2022/03/24 10:15:17;;;;;;;44.50;22.30;;;19.00;40.90;;;;;;4988733;28;20026;-53
2022/03/24 10:17:54;;;;;;;45.22;22.90;;;19.40;39.40;;;;;;4988026;28;20030;-51
2022/03/24 10:20:21;;;;;;;48.95;24.50;;;19.30;38.30;;;;;;4988595;28;20663;-51
2022/03/24 10:23:00;;;;;;;;;;;19.10;37.80;;;;;;4988656;28;20037;-52
2022/03/24 10:25:29;;;;;;;45.15;24.05;;;19.40;39.40;;;;;;4988599;28;20325;-53
2022/03/24 10:28:17;;;;;;;51.08;25.58;;;19.80;36.70;;;;;;4989378;28;20042;-53
2022/03/24 10:30:58;;;;;;;43.05;23.05;;;20.20;36.30;;;;;;4992060;28;20109;-53
2022/03/24 10:33:36;;;;;;;47.78;26.20;;;20.70;37.90;;;;;;4991906;28;20042;-52
2022/03/24 10:36:15;;;;;;;43.03;25.17;;;20.70;36.90;;;;;;4992347;28;20384;-51
2022/03/24 10:38:49;;;;;;;51.13;25.15;;;20.70;36.80;;;;;;4992476;28;20030;-51
2022/03/24 10:41:24;;;;;;;46.83;23.45;;;20.10;35.90;;;;;;4992231;28;20330;-52
2022/03/24 10:43:53;;;;;;;42.83;22.95;;;20.20;35.40;;;;;;4991941;28;20054;-51
2022/03/24 10:46:30;;;;;;;42.40;22.52;;;20.30;37.50;;;;;;4992126;28;20040;-53
2022/03/24 10:48:56;;;;;;;40.78;23.08;;;20.40;38.70;;;;;;4991840;28;20031;-52
2022/03/24 10:51:22;;;;;;;42.30;23.85;;;20.50;37.50;;;;;;4992213;28;20030;-51
2022/03/24 10:53:49;;;;;;;37.67;22.52;;;20.60;36.60;;;;;;4992032;28;20026;-54
2022/03/24 10:56:25;;;;;;;42.95;23.30;;;20.60;36.40;;;;;;4991720;28;20437;-53
2022/03/24 10:58:58;;;;;;;39.58;23.02;;;19.70;35.50;;;;;;4991925;28;20030;-52
2022/03/24 11:01:27;;;;;;;36.80;22.25;;;20.30;35.10;;;;;;4991998;28;20018;-50
2022/03/24 11:03:52;;;;;;;37.25;20.27;;;20.60;35.70;;;;;;4991793;28;20162;-51
2022/03/24 11:06:22;;;;;;;34.80;18.15;;;20.50;35.80;;;;;;4991692;28;20051;-50
2022/03/24 11:08:53;;;;;;;33.97;15.85;;;20.30;36.30;;;;;;5087929;22;20047;-51
2022/03/24 11:11:19;;;;;;;30.52;17.20;;;20.30;35.80;;;;;;4971397;28;20065;-51
2022/03/24 11:13:49;;;;;;;30.33;18.15;;;20.50;35.40;;;;;;4971601;28;20464;-51
2022/03/24 11:16:17;;;;;;;34.53;18.17;;;20.70;34.10;;;;;;4994067;28;20104;-52
2022/03/24 11:18:43;;;;;;;32.83;16.05;;;20.90;35.70;;;;;;5010884;28;20042;-51
2022/03/24 11:21:13;;;;;;;31.95;17.02;;;21.10;33.90;;;;;;5010152;28;20010;-52
2022/03/24 11:23:39;;;;;;;30.65;17.17;;;21.40;36.20;;;;;;5008911;28;20397;-53
2022/03/24 11:26:10;;;;;;;32.38;18.45;;;21.40;35.30;;;;;;5010022;28;20022;-51
2022/03/24 11:28:37;;;;;;;34.15;18.52;;;21.40;34.70;;;;;;5010117;28;20374;-53
2022/03/24 11:31:11;;;;;;;34.28;18.17;;;20.80;34.50;;;;;;5010840;28;20198;-51
2022/03/24 11:33:41;;;;;;;31.55;19.08;;;20.90;34.10;;;;;;5009929;28;20489;-50
2022/03/24 11:36:09;;;;;;;35.40;19.75;;;21.50;33.80;;;;;;5010746;28;20018;-53
2022/03/24 11:38:37;;;;;;;32.17;17.30;;;21.90;34.80;;;;;;4991754;28;20057;-50
2022/03/24 11:41:06;;;;;;;34.55;18.75;;;21.70;34.40;;;;;;5010035;28;20040;-50
2022/03/24 11:43:35;;;;;;;30.27;17.58;;;21.30;33.80;;;;;;5010008;28;20068;-51
2022/03/24 11:46:09;;;;;;;30.52;17.90;;;21.40;34.40;;;;;;5010500;28;20604;-51
2022/03/24 11:48:40;;;;;;;34.75;18.13;;;21.00;34.00;;;;;;5010470;28;20049;-50
2022/03/24 11:51:26;;;;;;;35.42;18.77;;;21.10;34.10;;;;;;5010677;28;20114;-50
2022/03/24 11:54:10;;;;;;;27.77;17.58;;;20.90;35.00;;;;;;4992147;28;20624;-51
2022/03/24 11:56:36;;;;;;;26.17;17.38;;;20.40;35.00;;;;;;5005603;28;20101;-51
2022/03/24 11:59:03;;;;;;;30.38;17.42;;;20.80;37.10;;;;;;4992470;28;20636;-53
2022/03/24 12:01:32;;;;;;;30.27;16.77;;;20.70;34.80;;;;;;5010158;28;20026;-51
2022/03/24 12:04:06;;;;;;;32.50;16.80;;;20.80;34.40;;;;;;5009541;28;20355;-53
2022/03/24 12:06:48;;;;;;;32.13;17.17;;;20.50;33.90;;;;;;5010275;28;20029;-52
2022/03/24 12:09:16;;;;;;;29.42;17.38;;;20.70;33.80;;;;;;5010000;28;20049;-53
2022/03/24 12:11:50;;;;;;;25.60;15.43;;;20.60;33.20;;;;;;5009711;28;20018;-51
2022/03/24 12:14:31;;;;;;;30.33;15.20;;;20.80;34.00;;;;;;5009690;28;20068;-51
2022/03/24 12:17:02;;;;;;;36.35;15.07;;;20.80;32.60;;;;;;5009459;28;20117;-51
2022/03/24 12:19:38;;;;;;;25.98;13.82;;;20.80;33.70;;;;;;5009800;28;20061;-51
2022/03/24 12:22:25;;;;;;;25.23;14.48;;;20.70;31.70;;;;;;5009485;28;20028;-51
2022/03/24 12:24:53;;;;;;;22.60;12.93;;;20.70;31.40;;;;;;5009467;28;20465;-52
2022/03/24 12:27:19;;;;;;;22.98;14.00;;;21.10;34.00;;;;;;5009532;28;20042;-51
2022/03/24 12:30:14;;;;;;;29.90;14.95;;;21.40;33.80;;;;;;5009350;28;20391;-50
2022/03/24 12:32:41;;;;;;;21.73;13.90;;;21.80;32.10;;;;;;5009138;28;20123;-50
2022/03/24 12:35:07;;;;;;;;;;;21.50;31.70;;;;;;5009805;28;20108;-51
2022/03/24 12:37:33;;;;;;;24.17;14.10;;;21.50;31.70;;;;;;5009231;28;19902;-51